Time;durP1;ratioP1;P1;durP2;ratioP2;P2;SDS_P1;SDS_P2;PMS_P1;PMS_P2;Temp;Humidity;BMP_temperature;BMP_pressure;BME280_temperature;BME280_humidity;BME280_pressure;Samples;Min_cycle;Max_cycle;Signal;HPM_P1;HPM_P2
2022/10/10 00:00:38;;;;;;;6.50;4.15;;;7.80;99.90;;;;;;5056776;28;20044;-52
2022/10/10 00:03:05;;;;;;;7.20;4.20;;;7.80;99.90;;;;;;5056836;28;20052;-50
2022/10/10 00:05:31;;;;;;;5.63;4.45;;;7.70;99.90;;;;;;5054692;28;20082;-51
2022/10/10 00:07:57;;;;;;;5.35;4.60;;;7.70;99.90;;;;;;5052846;28;20044;-53
2022/10/10 00:10:23;;;;;;;5.95;4.45;;;7.70;99.90;;;;;;5057000;28;20090;-48
2022/10/10 00:12:48;;;;;;;8.38;4.78;;;7.70;99.90;;;;;;5059743;28;20415;-51
2022/10/10 00:15:15;;;;;;;5.72;4.50;;;7.70;99.90;;;;;;5055606;28;20033;-52
2022/10/10 00:17:42;;;;;;;6.97;4.75;;;7.70;99.90;;;;;;5056864;28;20481;-51
2022/10/10 00:20:12;;;;;;;7.20;4.30;;;7.60;99.90;;;;;;5057874;28;20041;-48
2022/10/10 00:22:38;;;;;;;6.35;4.70;;;7.60;99.90;;;;;;5060792;28;20287;-50
2022/10/10 00:25:05;;;;;;;5.03;4.53;;;7.60;99.90;;;;;;5059792;28;20429;-49
2022/10/10 00:27:31;;;;;;;7.68;4.72;;;7.60;99.90;;;;;;5058346;28;20819;-53
2022/10/10 00:29:57;;;;;;;7.40;4.70;;;7.60;99.90;;;;;;5051817;28;20060;-48
2022/10/10 00:32:22;;;;;;;11.65;4.78;;;7.60;99.90;;;;;;5056664;28;20044;-50
2022/10/10 00:34:48;;;;;;;6.60;5.07;;;7.60;99.90;;;;;;5057156;28;20036;-48
2022/10/10 00:37:14;;;;;;;8.88;4.75;;;7.60;99.90;;;;;;5059440;28;20033;-51
2022/10/10 00:39:39;;;;;;;9.23;4.57;;;7.60;99.90;;;;;;5052832;28;20041;-52
2022/10/10 00:42:05;;;;;;;5.47;4.82;;;7.50;99.90;;;;;;5058828;28;20044;-50
2022/10/10 00:44:31;;;;;;;6.10;5.07;;;7.50;99.90;;;;;;5063319;28;20041;-51
2022/10/10 00:46:56;;;;;;;5.38;4.63;;;8.00;99.90;;;;;;5061311;28;20114;-51
2022/10/10 00:49:28;;;;;;;6.53;5.00;;;7.40;99.90;;;;;;5060028;28;20472;-53
2022/10/10 00:51:56;;;;;;;6.00;4.60;;;7.40;99.90;;;;;;5061491;28;20040;-54
2022/10/10 00:54:23;;;;;;;4.72;4.20;;;7.40;99.90;;;;;;5055667;28;20056;-53
2022/10/10 00:56:59;;;;;;;5.43;4.72;;;7.40;99.90;;;;;;5059782;28;20032;-51
2022/10/10 00:59:26;;;;;;;5.30;4.40;;;7.40;99.90;;;;;;5060660;28;20123;-48
2022/10/10 01:01:52;;;;;;;6.18;4.90;;;7.30;99.90;;;;;;5058116;28;20044;-51
2022/10/10 01:04:30;;;;;;;8.70;5.30;;;7.30;99.90;;;;;;5060455;28;20048;-51
2022/10/10 01:06:57;;;;;;;7.65;4.90;;;;;;;;;;5058715;28;20041;-49
2022/10/10 01:09:22;;;;;;;9.73;5.03;;;7.30;99.90;;;;;;5055607;28;20040;-47
2022/10/10 01:11:59;;;;;;;6.15;5.50;;;7.30;99.90;;;;;;5060329;28;20048;-51
2022/10/10 01:14:36;;;;;;;5.47;4.97;;;7.20;99.90;;;;;;5057654;28;20045;-51
2022/10/10 01:17:05;;;;;;;6.95;4.75;;;7.20;99.90;;;;;;5054477;28;20048;-50
2022/10/10 01:19:43;;;;;;;8.15;5.20;;;7.20;99.90;;;;;;5055035;28;20510;-54
2022/10/10 01:22:25;;;;;;;6.82;5.45;;;7.10;99.90;;;;;;5052263;28;20133;-50
2022/10/10 01:25:09;;;;;;;5.93;5.28;;;7.20;99.90;;;;;;5056731;28;20064;-49
2022/10/10 01:27:43;;;;;;;7.65;5.20;;;7.10;99.90;;;;;;5054466;28;20082;-47
2022/10/10 01:30:14;;;;;;;7.90;5.35;;;7.10;99.90;;;;;;5051402;28;20491;-52
2022/10/10 01:32:55;;;;;;;7.95;5.15;;;7.10;99.90;;;;;;5058795;28;20037;-47
2022/10/10 01:35:35;;;;;;;8.70;5.00;;;7.10;99.90;;;;;;5054856;28;20064;-50
2022/10/10 01:38:30;;;;;;;8.32;4.72;;;7.10;99.90;;;;;;5058056;28;20056;-48
2022/10/10 01:41:13;;;;;;;5.68;5.18;;;7.00;99.90;;;;;;5054504;28;20041;-52
2022/10/10 01:43:39;;;;;;;6.32;4.97;;;7.00;99.90;;;;;;5057787;28;20075;-51
2022/10/10 01:46:10;;;;;;;6.55;5.38;;;7.00;99.90;;;;;;5056704;28;20064;-50
2022/10/10 01:48:37;;;;;;;5.82;5.20;;;7.00;99.90;;;;;;5051863;28;20052;-52
2022/10/10 01:51:29;;;;;;;7.95;4.68;;;7.00;99.90;;;;;;5056207;28;20128;-50
2022/10/10 01:54:07;;;;;;;7.15;5.28;;;7.00;99.90;;;;;;5061012;28;20398;-48
2022/10/10 01:57:03;;;;;;;9.93;5.40;;;7.10;99.90;;;;;;5054541;28;20040;-47
2022/10/10 01:59:57;;;;;;;5.82;4.80;;;7.00;99.90;;;;;;5061864;28;20040;-50
2022/10/10 02:02:41;;;;;;;5.60;4.80;;;7.00;99.90;;;;;;5056340;28;20045;-50
2022/10/10 02:05:06;;;;;;;5.88;4.97;;;7.00;99.90;;;;;;5053568;28;20088;-49
2022/10/10 02:07:43;;;;;;;7.05;4.95;;;7.10;99.90;;;;;;5060158;28;20495;-52
2022/10/10 02:10:12;;;;;;;7.13;5.05;;;7.10;99.90;;;;;;5054073;28;20048;-52
2022/10/10 02:12:39;;;;;;;6.85;5.03;;;7.10;99.90;;;;;;5058108;28;20044;-51
2022/10/10 02:15:13;;;;;;;5.22;4.75;;;7.10;99.90;;;;;;5058160;28;20040;-53
2022/10/10 02:17:41;;;;;;;5.40;4.30;;;7.10;99.90;;;;;;5054130;28;20049;-51
2022/10/10 02:20:11;;;;;;;7.00;4.63;;;7.10;99.90;;;;;;5057405;28;20036;-51
2022/10/10 02:22:39;;;;;;;5.10;4.28;;;7.20;99.90;;;;;;5053446;28;20094;-51
2022/10/10 02:25:06;;;;;;;6.88;4.55;;;7.30;99.90;;;;;;5052309;28;20045;-53
2022/10/10 02:27:59;;;;;;;7.22;4.70;;;7.40;99.90;;;;;;5058811;28;20036;-51
2022/10/10 02:30:25;;;;;;;6.18;4.60;;;7.40;99.90;;;;;;5046028;28;20080;-48
2022/10/10 02:32:57;;;;;;;5.75;5.10;;;7.50;99.90;;;;;;5060439;28;20072;-52
2022/10/10 02:35:29;;;;;;;6.25;4.28;;;7.60;99.90;;;;;;5055868;28;20047;-53
2022/10/10 02:37:56;;;;;;;7.88;4.50;;;7.70;99.90;;;;;;5056779;28;20037;-48
2022/10/10 02:40:26;;;;;;;7.57;4.37;;;7.70;99.90;;;;;;5054263;28;20121;-47
2022/10/10 02:42:53;;;;;;;7.25;4.60;;;7.70;99.90;;;;;;5057808;28;20067;-50
2022/10/10 02:45:20;;;;;;;5.63;4.63;;;7.70;99.90;;;;;;5054557;28;20771;-49
2022/10/10 02:47:46;;;;;;;6.10;4.60;;;7.80;99.90;;;;;;5058508;28;20061;-51
2022/10/10 02:50:12;;;;;;;8.05;4.65;;;7.90;99.90;;;;;;5051796;28;20051;-49
2022/10/10 02:52:38;;;;;;;5.03;4.32;;;8.00;99.90;;;;;;5052087;28;20426;-50
2022/10/10 02:55:04;;;;;;;11.60;4.50;;;8.00;99.90;;;;;;5059135;28;20075;-51
2022/10/10 02:57:29;;;;;;;8.02;4.90;;;8.10;99.90;;;;;;5055483;28;21583;-50
2022/10/10 02:59:55;;;;;;;7.40;4.90;;;8.10;99.90;;;;;;5054680;28;20114;-47
2022/10/10 03:02:20;;;;;;;6.45;4.80;;;8.10;99.90;;;;;;5053386;28;20047;-48
2022/10/10 03:04:46;;;;;;;8.93;4.72;;;8.10;99.90;;;;;;5051249;28;20041;-51
2022/10/10 03:07:12;;;;;;;7.70;5.25;;;8.20;99.90;;;;;;5054733;28;20470;-47
2022/10/10 03:09:37;;;;;;;7.78;4.70;;;8.20;99.90;;;;;;5049042;28;20041;-47
2022/10/10 03:12:03;;;;;;;6.88;4.63;;;8.30;99.90;;;;;;5053999;28;20044;-49
2022/10/10 03:14:28;;;;;;;7.28;4.63;;;8.30;99.90;;;;;;5050728;28;20399;-47
2022/10/10 03:16:54;;;;;;;6.47;5.00;;;8.30;99.90;;;;;;5060324;28;20037;-47
2022/10/10 03:19:20;;;;;;;6.53;4.65;;;8.40;99.90;;;;;;5056613;28;20368;-49
2022/10/10 03:21:45;;;;;;;6.88;5.13;;;8.20;99.90;;;;;;5053865;28;20044;-48
2022/10/10 03:24:11;;;;;;;8.57;4.70;;;8.30;99.90;;;;;;5055744;28;20536;-51
2022/10/10 03:26:37;;;;;;;5.90;5.28;;;8.30;99.90;;;;;;5049825;28;20041;-49
2022/10/10 03:29:03;;;;;;;7.05;4.88;;;8.40;99.90;;;;;;5056953;28;20037;-52
2022/10/10 03:31:28;;;;;;;7.03;5.43;;;8.40;99.90;;;;;;5053380;28;20037;-47
2022/10/10 03:33:54;;;;;;;7.55;4.97;;;8.40;99.90;;;;;;5057602;28;20118;-48
2022/10/10 03:36:20;;;;;;;6.55;5.28;;;8.40;99.90;;;;;;5053197;28;20560;-48
2022/10/10 03:38:45;;;;;;;8.93;5.07;;;8.40;99.90;;;;;;5052834;28;20068;-51
2022/10/10 03:41:11;;;;;;;7.43;5.45;;;8.40;99.90;;;;;;5056870;28;20640;-48
2022/10/10 03:43:37;;;;;;;7.00;5.05;;;8.40;99.90;;;;;;5055175;28;20131;-50
2022/10/10 03:46:03;;;;;;;9.30;5.40;;;8.30;99.90;;;;;;5057911;28;20447;-47
2022/10/10 03:48:28;;;;;;;9.73;5.07;;;8.30;99.90;;;;;;5057706;28;20044;-51
2022/10/10 03:50:54;;;;;;;6.40;5.43;;;8.40;99.90;;;;;;5056447;28;20049;-48
2022/10/10 03:53:19;;;;;;;8.27;5.20;;;8.30;99.90;;;;;;5054438;28;20044;-49
2022/10/10 03:55:45;;;;;;;6.53;5.03;;;8.30;99.90;;;;;;5057910;28;20040;-51
2022/10/10 03:58:11;;;;;;;8.13;5.07;;;8.30;99.90;;;;;;5060086;28;20390;-47
2022/10/10 04:00:37;;;;;;;5.82;5.13;;;8.30;99.90;;;;;;5060550;28;20437;-49
2022/10/10 04:03:06;;;;;;;5.53;4.68;;;8.30;99.90;;;;;;5059468;28;20747;-50
2022/10/10 04:05:36;;;;;;;7.85;5.00;;;8.30;99.90;;;;;;5057538;28;20513;-47
2022/10/10 04:08:03;;;;;;;8.02;5.50;;;8.30;99.90;;;;;;5062795;28;20505;-47
2022/10/10 04:10:29;;;;;;;5.47;4.82;;;8.30;99.90;;;;;;5059077;28;20055;-49
2022/10/10 04:12:54;;;;;;;7.72;5.68;;;8.20;99.90;;;;;;5061305;28;20424;-47
2022/10/10 04:15:20;;;;;;;7.18;5.07;;;8.20;99.90;;;;;;5062901;28;20044;-47
2022/10/10 04:17:46;;;;;;;8.52;5.40;;;8.20;99.90;;;;;;5058311;28;20045;-48
2022/10/10 04:20:11;;;;;;;5.93;5.18;;;8.10;99.90;;;;;;5062450;28;20067;-46
2022/10/10 04:22:37;;;;;;;7.70;5.68;;;8.10;99.90;;;;;;5054575;28;20052;-50
2022/10/10 04:25:03;;;;;;;7.68;5.05;;;8.10;99.90;;;;;;5053136;28;20440;-51
2022/10/10 04:27:28;;;;;;;7.32;5.47;;;8.00;99.90;;;;;;5060185;28;21016;-52
2022/10/10 04:29:54;;;;;;;8.70;5.88;;;8.00;99.90;;;;;;5058443;28;20048;-51
2022/10/10 04:32:20;;;;;;;9.25;5.97;;;8.10;99.90;;;;;;5059026;28;20043;-49
2022/10/10 04:34:45;;;;;;;7.93;5.50;;;8.00;99.90;;;;;;5060167;28;20045;-49
2022/10/10 04:37:11;;;;;;;8.85;5.25;;;8.00;99.90;;;;;;5057835;28;20119;-47
2022/10/10 04:39:37;;;;;;;6.97;5.60;;;8.00;99.90;;;;;;5060629;28;20063;-49
2022/10/10 04:42:03;;;;;;;8.98;5.43;;;8.00;99.90;;;;;;5063551;28;20036;-50
2022/10/10 04:44:28;;;;;;;11.20;5.30;;;7.90;99.90;;;;;;5059958;28;20483;-47
2022/10/10 04:46:54;;;;;;;8.73;5.72;;;7.90;99.90;;;;;;5060880;28;20499;-51
2022/10/10 04:49:19;;;;;;;7.05;5.40;;;7.90;99.90;;;;;;5059007;28;20056;-48
2022/10/10 04:51:45;;;;;;;8.98;5.60;;;7.90;99.90;;;;;;5059202;28;20624;-48
2022/10/10 04:54:12;;;;;;;7.75;5.53;;;7.90;99.90;;;;;;5055896;28;20037;-50
2022/10/10 04:56:39;;;;;;;7.85;5.90;;;7.90;99.90;;;;;;5058015;28;20041;-48
2022/10/10 04:59:05;;;;;;;7.57;5.68;;;7.90;99.90;;;;;;5055284;28;20406;-54
2022/10/10 05:01:31;;;;;;;8.23;6.07;;;7.80;99.90;;;;;;5061016;28;20049;-48
2022/10/10 05:03:58;;;;;;;15.55;6.10;;;7.80;99.90;;;;;;5059671;28;20047;-50
2022/10/10 05:06:23;;;;;;;8.15;5.68;;;7.80;99.90;;;;;;5058227;28;20408;-47
2022/10/10 05:08:49;;;;;;;7.25;5.50;;;7.80;99.90;;;;;;5059701;28;20632;-52
2022/10/10 05:11:15;;;;;;;9.30;5.63;;;7.70;99.90;;;;;;5058595;28;20033;-50
2022/10/10 05:13:40;;;;;;;8.25;6.32;;;7.70;99.90;;;;;;5060066;28;20099;-48
2022/10/10 05:16:06;;;;;;;9.57;5.85;;;;;;;;;;5064893;28;20079;-46
2022/10/10 05:18:35;;;;;;;10.15;5.80;;;7.70;99.90;;;;;;5058341;28;20036;-49
2022/10/10 05:21:01;;;;;;;8.52;5.60;;;7.70;99.90;;;;;;5057727;28;20063;-52
2022/10/10 05:23:26;;;;;;;8.18;6.30;;;7.70;99.90;;;;;;5055719;28;20037;-50
2022/10/10 05:25:52;;;;;;;7.88;6.18;;;;;;;;;;5058811;28;20044;-49
2022/10/10 05:28:18;;;;;;;8.02;5.75;;;7.70;99.90;;;;;;5057718;28;20094;-47
2022/10/10 05:30:43;;;;;;;8.20;5.55;;;7.60;99.90;;;;;;5059461;28;20094;-47
2022/10/10 05:33:09;;;;;;;7.78;6.00;;;7.60;99.90;;;;;;5058093;28;20073;-50
2022/10/10 05:35:35;;;;;;;9.68;6.20;;;7.60;99.90;;;;;;5056199;28;20120;-48
2022/10/10 05:38:00;;;;;;;6.95;5.68;;;7.60;99.90;;;;;;5058623;28;20037;-48
2022/10/10 05:40:26;;;;;;;8.13;6.07;;;7.50;99.90;;;;;;5057942;28;20111;-48
2022/10/10 05:42:52;;;;;;;7.93;6.00;;;7.50;99.90;;;;;;5058278;28;20032;-51
2022/10/10 05:45:18;;;;;;;8.00;6.22;;;7.50;99.90;;;;;;5057271;28;21485;-48
2022/10/10 05:47:43;;;;;;;8.77;6.05;;;7.50;99.90;;;;;;5054879;28;20056;-47
2022/10/10 05:50:24;;;;;;;11.57;5.60;;;7.50;99.90;;;;;;5056085;28;20087;-50
2022/10/10 05:52:49;;;;;;;15.95;6.35;;;7.50;99.90;;;;;;5055517;28;20075;-51
2022/10/10 05:55:15;;;;;;;30.95;7.75;;;7.50;99.90;;;;;;5057170;28;20049;-49
2022/10/10 05:57:40;;;;;;;23.10;6.68;;;7.60;99.90;;;;;;5056539;28;20040;-48
2022/10/10 06:00:07;;;;;;;13.88;6.68;;;7.60;99.90;;;;;;5056391;28;20106;-49
2022/10/10 06:02:34;;;;;;;10.35;5.63;;;7.60;99.90;;;;;;5058769;28;20616;-51
2022/10/10 06:04:59;;;;;;;10.05;6.13;;;7.60;99.90;;;;;;5056123;28;20040;-51
2022/10/10 06:07:25;;;;;;;8.73;6.10;;;7.70;99.90;;;;;;5055436;28;20040;-49
2022/10/10 06:09:50;;;;;;;6.80;5.90;;;7.60;99.90;;;;;;5061688;28;20043;-52
2022/10/10 06:12:16;;;;;;;7.40;6.03;;;7.60;99.90;;;;;;5063524;28;21778;-52
2022/10/10 06:14:41;;;;;;;8.02;6.57;;;7.70;99.90;;;;;;5058424;28;20064;-51
2022/10/10 06:17:07;;;;;;;12.65;6.43;;;7.70;99.90;;;;;;5061035;28;20048;-50
2022/10/10 06:19:33;;;;;;;12.52;6.60;;;7.70;99.90;;;;;;5057017;28;20049;-52
2022/10/10 06:21:59;;;;;;;8.40;6.13;;;7.80;99.90;;;;;;5060592;28;20036;-52
2022/10/10 06:24:24;;;;;;;7.95;5.97;;;7.80;99.90;;;;;;5056085;28;20135;-54
2022/10/10 06:26:50;;;;;;;11.43;6.45;;;7.90;99.90;;;;;;5060727;28;20367;-50
2022/10/10 06:29:15;;;;;;;10.63;6.53;;;7.90;99.90;;;;;;5056909;28;20051;-50
2022/10/10 06:31:41;;;;;;;10.20;6.55;;;7.90;99.90;;;;;;5060856;28;20028;-49
2022/10/10 06:34:07;;;;;;;11.18;6.68;;;8.00;99.90;;;;;;5059476;28;20044;-50
2022/10/10 06:36:32;;;;;;;11.40;6.13;;;8.00;99.90;;;;;;5059406;28;20575;-51
2022/10/10 06:38:58;;;;;;;15.52;7.00;;;8.10;99.90;;;;;;5057810;28;20048;-52
2022/10/10 06:41:23;;;;;;;12.05;6.57;;;8.10;99.90;;;;;;5056549;28;20039;-53
2022/10/10 06:43:50;;;;;;;8.68;6.78;;;8.30;99.90;;;;;;5058104;28;20479;-49
2022/10/10 06:46:16;;;;;;;9.90;5.72;;;8.40;99.90;;;;;;5060698;28;20053;-50
2022/10/10 06:48:42;;;;;;;9.02;6.05;;;8.50;99.90;;;;;;5056339;28;21632;-53
2022/10/10 06:51:12;;;;;;;8.27;6.30;;;8.60;99.90;;;;;;5057148;28;20037;-51
2022/10/10 06:53:37;;;;;;;9.07;6.15;;;8.70;99.90;;;;;;5058651;28;20037;-48
2022/10/10 06:56:03;;;;;;;8.95;6.53;;;8.80;99.90;;;;;;5060027;28;20162;-51
2022/10/10 06:58:30;;;;;;;8.30;6.05;;;9.00;99.90;;;;;;5056256;28;20128;-48
2022/10/10 07:01:01;;;;;;;7.53;6.00;;;9.10;99.90;;;;;;5055342;28;20037;-52
2022/10/10 07:03:28;;;;;;;9.85;6.07;;;9.30;99.90;;;;;;5058841;28;20712;-48
2022/10/10 07:05:57;;;;;;;10.95;5.80;;;9.40;99.90;;;;;;5055413;28;20102;-51
2022/10/10 07:08:23;;;;;;;7.72;5.88;;;9.60;99.90;;;;;;5055219;28;20037;-49
2022/10/10 07:10:50;;;;;;;9.68;5.80;;;9.70;99.90;;;;;;5061016;28;20150;-52
2022/10/10 07:13:16;;;;;;;9.48;5.60;;;9.90;99.90;;;;;;5058521;28;20581;-52
2022/10/10 07:15:42;;;;;;;7.22;5.68;;;9.90;99.90;;;;;;5057238;28;20044;-52
2022/10/10 07:18:08;;;;;;;11.18;5.72;;;9.90;99.90;;;;;;5058601;28;20037;-53
2022/10/10 07:20:35;;;;;;;7.63;5.97;;;10.00;99.90;;;;;;5056930;28;20108;-54
2022/10/10 07:23:01;;;;;;;7.95;6.28;;;10.10;99.90;;;;;;5057315;28;20048;-54
2022/10/10 07:25:27;;;;;;;8.32;5.72;;;10.20;99.90;;;;;;5057338;28;20079;-52
2022/10/10 07:27:52;;;;;;;10.48;5.72;;;10.50;99.90;;;;;;5062150;28;20144;-49
2022/10/10 07:30:18;;;;;;;8.57;5.93;;;10.50;99.90;;;;;;5060346;28;20044;-51
2022/10/10 07:32:44;;;;;;;8.35;5.78;;;10.60;99.90;;;;;;5057820;28;20122;-48
2022/10/10 07:35:10;;;;;;;9.90;6.22;;;10.80;99.90;;;;;;5060057;28;22123;-52
2022/10/10 07:37:36;;;;;;;8.23;5.53;;;10.80;99.90;;;;;;5066501;28;20044;-50
2022/10/10 07:40:03;;;;;;;8.70;6.18;;;11.00;99.90;;;;;;5066166;28;20067;-52
2022/10/10 07:42:28;;;;;;;7.18;5.57;;;11.10;99.90;;;;;;5065882;28;20094;-52
2022/10/10 07:44:54;;;;;;;9.30;6.30;;;11.10;99.90;;;;;;5062727;28;20676;-51
2022/10/10 07:47:21;;;;;;;10.88;6.05;;;11.20;99.90;;;;;;5061658;28;21950;-52
2022/10/10 07:49:46;;;;;;;7.53;5.47;;;11.20;99.90;;;;;;5064782;28;20470;-52
2022/10/10 07:52:12;;;;;;;9.80;6.13;;;11.20;99.90;;;;;;5062687;28;20094;-51
2022/10/10 07:54:37;;;;;;;7.45;5.65;;;11.30;99.90;;;;;;5064131;28;20474;-52
2022/10/10 07:57:04;;;;;;;9.80;6.05;;;11.50;99.90;;;;;;5066840;28;20048;-52
2022/10/10 07:59:29;;;;;;;8.88;5.55;;;11.70;99.90;;;;;;5066364;28;20049;-53
2022/10/10 08:01:55;;;;;;;8.55;6.43;;;11.70;99.90;;;;;;5063077;28;20048;-52
2022/10/10 08:04:21;;;;;;;11.30;6.40;;;11.70;99.90;;;;;;5059549;28;20054;-51
2022/10/10 08:06:47;;;;;;;8.50;6.28;;;11.70;99.90;;;;;;5060763;28;20426;-50
2022/10/10 08:09:13;;;;;;;6.95;6.05;;;11.80;99.90;;;;;;5063215;28;20102;-49
2022/10/10 08:11:38;;;;;;;7.38;5.53;;;11.80;99.90;;;;;;5058524;28;20044;-47
2022/10/10 08:14:04;;;;;;;11.50;5.82;;;11.90;99.90;;;;;;5059635;28;20072;-48
2022/10/10 08:16:30;;;;;;;8.05;6.22;;;12.00;99.90;;;;;;5061280;28;20044;-50
2022/10/10 08:18:56;;;;;;;13.50;6.55;;;12.00;99.90;;;;;;5058573;28;20131;-51
2022/10/10 08:21:21;;;;;;;9.10;6.00;;;12.20;99.90;;;;;;5067868;28;20066;-50
2022/10/10 08:23:47;;;;;;;10.63;6.10;;;12.20;99.90;;;;;;5064211;28;20502;-49
2022/10/10 08:26:14;;;;;;;8.90;6.15;;;12.30;99.90;;;;;;5068696;28;20048;-50
2022/10/10 08:28:40;;;;;;;8.48;6.82;;;12.40;99.90;;;;;;5071942;28;20063;-51
2022/10/10 08:31:07;;;;;;;9.48;6.13;;;12.40;99.90;;;;;;5068775;28;20474;-52
2022/10/10 08:33:33;;;;;;;9.07;6.50;;;12.40;99.90;;;;;;5062211;28;20032;-53
2022/10/10 08:36:04;;;;;;;9.25;6.60;;;12.30;99.90;;;;;;5066684;28;20583;-53
2022/10/10 08:38:30;;;;;;;8.10;6.20;;;12.30;99.90;;;;;;5073121;28;20123;-52
2022/10/10 08:40:57;;;;;;;8.90;6.20;;;12.20;99.90;;;;;;5068674;28;20140;-50
2022/10/10 08:43:32;;;;;;;10.25;6.50;;;12.20;99.90;;;;;;5058781;28;20052;-55
2022/10/10 08:46:06;;;;;;;8.88;6.47;;;12.30;99.90;;;;;;5063496;28;20049;-54
2022/10/10 08:48:32;;;;;;;11.13;6.53;;;12.40;99.90;;;;;;5061641;28;20045;-51
2022/10/10 08:51:08;;;;;;;11.93;6.97;;;12.60;99.90;;;;;;5066646;28;20040;-51
2022/10/10 08:53:46;;;;;;;7.70;6.05;;;12.60;99.90;;;;;;5058709;28;20032;-53
2022/10/10 08:56:16;;;;;;;9.30;6.78;;;12.60;99.90;;;;;;5061721;28;20059;-52
2022/10/10 08:58:48;;;;;;;9.50;6.50;;;12.70;99.90;;;;;;5064276;28;20044;-53
2022/10/10 09:01:19;;;;;;;8.93;6.60;;;12.70;99.90;;;;;;5067468;28;20486;-52
2022/10/10 09:03:46;;;;;;;8.63;5.90;;;12.80;99.90;;;;;;5062158;28;20119;-48
2022/10/10 09:06:17;;;;;;;10.80;6.43;;;12.90;99.90;;;;;;5068717;28;20105;-51
2022/10/10 09:09:05;;;;;;;10.65;6.40;;;12.90;99.90;;;;;;5067962;28;20044;-54
2022/10/10 09:12:08;;;;;;;8.23;6.35;;;13.00;99.90;;;;;;5067644;28;20124;-51
2022/10/10 09:14:45;;;;;;;8.02;6.78;;;13.10;99.90;;;;;;5071587;28;20498;-52
2022/10/10 09:17:14;;;;;;;9.18;6.13;;;13.20;99.90;;;;;;5071280;28;20498;-52
2022/10/10 09:20:04;;;;;;;6.85;6.05;;;13.40;99.90;;;;;;5072490;28;20083;-52
2022/10/10 09:22:33;;;;;;;9.88;6.82;;;13.40;99.90;;;;;;5056297;28;20041;-52
2022/10/10 09:25:11;;;;;;;9.38;6.65;;;13.40;99.90;;;;;;5060194;28;20048;-52
2022/10/10 09:27:40;;;;;;;8.07;5.85;;;13.40;99.90;;;;;;5064927;28;20049;-51
2022/10/10 09:30:16;;;;;;;9.85;6.57;;;13.40;99.90;;;;;;5070287;28;20053;-54
2022/10/10 09:32:49;;;;;;;8.55;7.03;;;13.30;99.90;;;;;;5061141;28;20033;-51
2022/10/10 09:35:27;;;;;;;11.00;6.30;;;13.40;99.90;;;;;;5061445;28;20044;-50
2022/10/10 09:38:19;;;;;;;10.18;6.65;;;13.50;99.90;;;;;;5064825;28;20040;-48
2022/10/10 09:40:52;;;;;;;7.72;6.70;;;13.60;99.90;;;;;;5066054;28;20056;-50
2022/10/10 09:43:19;;;;;;;9.65;6.55;;;13.80;99.90;;;;;;5068333;28;20406;-48
2022/10/10 09:45:52;;;;;;;8.98;6.63;;;13.90;99.90;;;;;;5066063;28;20044;-51
2022/10/10 09:48:20;;;;;;;8.90;6.63;;;14.10;99.90;;;;;;5070207;28;20032;-48
2022/10/10 09:50:46;;;;;;;12.60;6.70;;;14.30;99.90;;;;;;5063940;28;20040;-51
2022/10/10 09:53:15;;;;;;;11.35;7.18;;;14.50;99.90;;;;;;5067334;28;20063;-54
2022/10/10 09:55:41;;;;;;;7.88;6.22;;;14.60;99.90;;;;;;5062321;28;20044;-54
2022/10/10 09:58:39;;;;;;;8.05;6.43;;;14.80;99.90;;;;;;5065114;28;20082;-52
2022/10/10 10:01:20;;;;;;;9.00;6.38;;;14.90;99.90;;;;;;5068270;28;20080;-51
2022/10/10 10:04:15;;;;;;;9.50;6.72;;;15.10;99.90;;;;;;5058657;28;20047;-52
2022/10/10 10:06:47;;;;;;;10.75;6.65;;;15.30;99.90;;;;;;5062913;28;20487;-53
2022/10/10 10:09:18;;;;;;;9.85;6.32;;;15.40;99.90;;;;;;5060775;28;21150;-52
2022/10/10 10:11:46;;;;;;;13.02;6.53;;;15.50;99.90;;;;;;5063146;28;20101;-51
2022/10/10 10:14:35;;;;;;;7.72;6.30;;;15.60;99.90;;;;;;5064496;28;20492;-53
2022/10/10 10:17:07;;;;;;;11.27;6.07;;;15.90;99.90;;;;;;5063194;28;20049;-51
2022/10/10 10:19:44;;;;;;;10.68;6.38;;;16.10;99.90;;;;;;5064497;28;20041;-52
2022/10/10 10:22:37;;;;;;;7.15;5.72;;;16.20;99.90;;;;;;5065564;28;20406;-50
2022/10/10 10:25:27;;;;;;;7.85;6.25;;;16.30;99.90;;;;;;5060273;28;20048;-53
2022/10/10 10:28:14;;;;;;;7.70;6.32;;;16.50;99.90;;;;;;5066035;28;20131;-52
2022/10/10 10:30:43;;;;;;;8.25;5.57;;;16.50;99.90;;;;;;5070950;28;20083;-55
2022/10/10 10:33:22;;;;;;;12.32;5.95;;;16.40;99.90;;;;;;5065652;28;20495;-51
2022/10/10 10:35:59;;;;;;;9.27;5.88;;;16.30;99.90;;;;;;5065769;28;20032;-49
2022/10/10 10:38:40;;;;;;;8.50;6.47;;;16.30;99.90;;;;;;5063299;28;20679;-53
2022/10/10 10:41:51;;;;;;;8.25;6.30;;;16.20;99.90;;;;;;5068857;28;20407;-51
2022/10/10 10:44:38;;;;;;;7.68;5.95;;;16.20;99.90;;;;;;5066468;28;20090;-53
2022/10/10 10:47:19;;;;;;;8.88;6.05;;;16.30;99.90;;;;;;5062424;28;20183;-51
2022/10/10 10:50:00;;;;;;;9.95;5.88;;;16.30;99.90;;;;;;5065922;28;20463;-54
2022/10/10 10:52:47;;;;;;;9.88;5.93;;;16.30;99.90;;;;;;5062101;28;20547;-55
2022/10/10 10:55:47;;;;;;;9.00;5.73;;;16.40;99.90;;;;;;5068376;28;20036;-52
2022/10/10 10:58:39;;;;;;;9.00;6.18;;;16.60;99.90;;;;;;5067881;28;20032;-52
2022/10/10 11:01:20;;;;;;;8.50;5.55;;;16.80;99.90;;;;;;5067522;28;20048;-53
2022/10/10 11:03:58;;;;;;;8.65;6.07;;;16.90;99.90;;;;;;5065256;28;20085;-53
2022/10/10 11:06:30;;;;;;;8.93;5.82;;;16.90;99.90;;;;;;5067489;28;20049;-52
2022/10/10 11:09:18;;;;;;;8.38;6.03;;;16.90;99.90;;;;;;5070715;28;20051;-53
2022/10/10 11:11:44;;;;;;;8.52;6.10;;;16.80;99.90;;;;;;5063565;28;20498;-55
2022/10/10 11:14:18;;;;;;;7.80;5.32;;;16.80;99.90;;;;;;5066888;28;20051;-53
2022/10/10 11:16:59;;;;;;;8.00;6.03;;;16.70;99.90;;;;;;5067289;28;20047;-52
2022/10/10 11:19:30;;;;;;;10.80;6.30;;;16.70;99.90;;;;;;5063673;28;20079;-53
2022/10/10 11:22:17;;;;;;;8.45;5.70;;;16.80;99.90;;;;;;5063192;28;20060;-55
2022/10/10 11:24:45;;;;;;;8.23;6.32;;;16.80;99.90;;;;;;5055145;28;20044;-53
2022/10/10 11:27:28;;;;;;;9.00;6.40;;;16.90;99.90;;;;;;5063732;28;20044;-53
2022/10/10 11:29:57;;;;;;;11.02;5.85;;;16.80;99.90;;;;;;5062379;28;20091;-54
2022/10/10 11:32:38;;;;;;;7.65;5.70;;;16.90;99.90;;;;;;5060907;28;20828;-53
2022/10/10 11:35:16;;;;;;;8.05;5.70;;;16.90;99.90;;;;;;5065403;28;20052;-50
2022/10/10 11:37:47;;;;;;;7.80;5.57;;;16.80;99.90;;;;;;5065225;28;20132;-54
2022/10/10 11:40:32;;;;;;;9.20;6.22;;;16.90;99.90;;;;;;5062963;28;20036;-50
2022/10/10 11:43:12;;;;;;;6.40;5.20;;;16.90;99.90;;;;;;5065067;28;20433;-50
2022/10/10 11:45:46;;;;;;;16.05;5.80;;;17.00;99.90;;;;;;5064210;28;20044;-51
2022/10/10 11:48:21;;;;;;;8.15;5.43;;;17.00;99.90;;;;;;5063166;28;20494;-52
2022/10/10 11:50:56;;;;;;;6.05;5.10;;;17.10;99.90;;;;;;5064075;28;20514;-53
2022/10/10 11:53:35;;;;;;;9.18;4.97;;;17.30;99.90;;;;;;5063501;28;20044;-52
2022/10/10 11:56:29;;;;;;;8.80;5.35;;;17.40;99.90;;;;;;5058771;28;20037;-54
2022/10/10 11:59:01;;;;;;;10.07;5.15;;;17.50;99.90;;;;;;5063468;28;20051;-53
2022/10/10 12:01:28;;;;;;;6.57;5.13;;;17.60;99.90;;;;;;5058750;28;20387;-53
2022/10/10 12:03:56;;;;;;;;;;;17.50;99.90;;;;;;5064645;28;20441;-53
2022/10/10 12:06:28;;;;;;;;;;;17.50;99.90;;;;;;5061924;28;20289;-52
2022/10/10 12:09:00;;;;;;;11.63;4.95;;;17.40;99.90;;;;;;5059860;28;19920;-53
2022/10/10 12:11:39;;;;;;;10.80;4.70;;;17.40;99.90;;;;;;5063698;28;20044;-53
2022/10/10 12:14:08;;;;;;;8.85;5.05;;;17.50;99.90;;;;;;5068304;28;20041;-53
2022/10/10 12:16:36;;;;;;;16.73;5.32;;;17.40;99.90;;;;;;5070377;28;20074;-51
2022/10/10 12:19:14;;;;;;;12.90;5.10;;;17.30;99.90;;;;;;5062130;28;20037;-54
2022/10/10 12:21:58;;;;;;;18.08;5.45;;;17.00;99.90;;;;;;5065657;28;20103;-55
2022/10/10 12:24:27;;;;;;;14.70;5.30;;;16.90;99.90;;;;;;5068517;28;20078;-51
2022/10/10 12:26:55;;;;;;;13.75;4.93;;;16.90;99.90;;;;;;5068918;28;20044;-54
2022/10/10 12:29:40;;;;;;;14.43;4.97;;;;;;;;;;5067164;28;20048;-52
2022/10/10 12:32:24;;;;;;;15.10;5.03;;;16.90;99.90;;;;;;5068450;28;20402;-52
2022/10/10 12:34:50;;;;;;;14.98;5.63;;;16.90;99.90;;;;;;5074054;28;20192;-53
2022/10/10 12:37:30;;;;;;;14.35;5.43;;;17.00;99.90;;;;;;5066025;28;20182;-53
2022/10/10 12:40:05;;;;;;;13.88;5.20;;;17.00;99.90;;;;;;5063390;28;20137;-53
2022/10/10 12:42:33;;;;;;;17.83;5.07;;;17.00;99.90;;;;;;5071028;28;20075;-51
2022/10/10 12:44:59;;;;;;;11.32;4.82;;;17.00;99.90;;;;;;5065332;28;20043;-52
2022/10/10 12:47:44;;;;;;;6.85;4.57;;;16.90;99.90;;;;;;5070870;28;20084;-56
2022/10/10 12:50:25;;;;;;;12.35;4.80;;;16.60;99.90;;;;;;5069765;28;20033;-53
2022/10/10 12:52:57;;;;;;;7.18;4.50;;;16.60;99.90;;;;;;5072103;28;20045;-52
2022/10/10 12:55:30;;;;;;;8.98;4.45;;;16.50;99.90;;;;;;5069761;28;20047;-52
2022/10/10 12:57:59;;;;;;;9.68;4.13;;;16.40;99.90;;;;;;5059109;28;20444;-51
2022/10/10 13:00:56;;;;;;;9.02;4.93;;;16.30;99.90;;;;;;5055202;28;20037;-53
2022/10/10 13:03:34;;;;;;;7.85;4.45;;;16.20;99.90;;;;;;5066976;28;20140;-52
2022/10/10 13:06:15;;;;;;;8.02;4.95;;;16.20;99.90;;;;;;5063493;28;20076;-51
2022/10/10 13:08:41;;;;;;;14.75;5.78;;;16.10;99.90;;;;;;5068608;28;20045;-47
2022/10/10 13:11:12;;;;;;;10.52;4.70;;;16.00;99.90;;;;;;5066063;28;20170;-51